Terminal Aerodrome Forecast
Issued by NWS

Home | Current Version | Previous Version | Text Only | Print | Product List | Glossary On
Versions: 1 2 3 4 5 6 7 8 9 10 11 12 13 14 15 16 17 18 19
000
FTUS46 KSEW 282100 AAA
TAFOLM
TAF AMD
KOLM 282116Z 2821/2918 00000KT P6SM OVC011
      TEMPO 2821/2901 SCT012 OVC035
     FM290600 00000KT 4SM BR OVC012
     FM290900 00000KT 2SM BR OVC010
     FM291500 00000KT 1/2SM FG OVC001=

USA.gov is the U.S. government's official web portal to all federal, state and local government web resources and services.